Terminal Aerodrome Forecast
Issued by NWS

Home | Current Version | Previous Version | Text Only | Print | Product List | Glossary On
Versions: 1 2 3 4 5 6 7 8 9 10 11 12 13 14 15 16
000
FTUS41 KBGM 250541
TAFITH
TAF
KITH 250541Z 2506/2606 13007KT P6SM OVC090
     FM250900 14010KT P6SM OVC045
      TEMPO 2509/2513 -SHRA
     FM251900 14012G20KT P6SM -RA OVC025
     FM260000 14008KT 5SM -DZ BR OVC015=

USA.gov is the U.S. government's official web portal to all federal, state and local government web resources and services.